Time;durP1;ratioP1;P1;durP2;ratioP2;P2;SDS_P1;SDS_P2;PMS_P1;PMS_P2;Temp;Humidity;BMP_temperature;BMP_pressure;BME280_temperature;BME280_humidity;BME280_pressure;Samples;Min_cycle;Max_cycle;Signal;HPM_P1;HPM_P2
2022/09/12 00:00:30;;;;;;;;;7.75;7.75;;;;;19.05;62.07;100855.88;5006740;28;45383;-50
2022/09/12 00:02:56;;;;;;;;;11.60;11.60;;;;;19.49;62.27;100926.31;5014274;28;45407;-51
2022/09/12 00:05:22;;;;;;;;;14.25;11.75;;;;;19.36;62.60;100903.41;5014823;28;45560;-50
2022/09/12 00:07:47;;;;;;;;;11.25;11.25;;;;;19.46;62.39;100924.06;5014451;28;46366;-52
2022/09/12 00:10:13;;;;;;;;;11.50;11.00;;;;;19.39;62.39;100927.09;5014736;28;45290;-53
2022/09/12 00:12:38;;;;;;;;;10.75;10.25;;;;;19.41;62.53;100924.03;5015913;28;45435;-50
2022/09/12 00:15:05;;;;;;;;;15.50;12.25;;;;;19.21;62.74;100886.63;5018616;28;45339;-53
2022/09/12 00:17:33;;;;;;;;;13.60;12.60;;;;;19.36;62.54;100908.13;5016129;28;48599;-52
2022/09/12 00:19:59;;;;;;;;;16.40;15.00;;;;;19.37;62.73;100907.88;5018382;28;45340;-51
2022/09/12 00:22:24;;;;;;;;;13.50;13.00;;;;;19.40;62.90;100906.50;5018289;28;45393;-49
2022/09/12 00:24:50;;;;;;;;;16.00;15.75;;;;;19.35;62.60;100895.31;5000497;28;45433;-49
2022/09/12 00:27:15;;;;;;;;;13.25;12.25;;;;;19.32;62.94;100888.34;5000054;28;45429;-52
2022/09/12 00:29:41;;;;;;;;;12.25;12.25;;;;;19.40;62.57;100897.28;5000257;28;45346;-53
2022/09/12 00:32:06;;;;;;;;;8.50;6.50;;;;;19.40;62.87;100894.50;5018275;28;45296;-52
2022/09/12 00:34:32;;;;;;;;;21.25;19.25;;;;;19.35;62.65;100895.31;5018131;28;45564;-52
2022/09/12 00:36:57;;;;;;;;;21.50;18.50;;;;;19.39;62.60;100898.41;5017786;28;46244;-52
2022/09/12 00:39:23;;;;;;;;;22.75;19.25;;;;;19.40;62.51;100894.50;5017945;28;45372;-51
2022/09/12 00:41:48;;;;;;;;;20.50;19.00;;;;;19.35;62.44;100884.19;5016420;28;45350;-54
2022/09/12 00:44:14;;;;;;;;;24.75;20.75;;;;;19.20;62.29;100857.94;5033429;28;45363;-50
2022/09/12 00:46:55;;;;;;;;;20.50;19.00;;;;;19.09;62.75;100840.34;5037540;28;45420;-51
2022/09/12 00:49:29;;;;;;;;;18.00;17.00;;;;;19.32;62.62;100876.38;5019975;28;45390;-51
2022/09/12 00:51:58;;;;;;;;;17.20;14.60;;;;;19.27;62.66;100868.00;5037342;28;45447;-51
2022/09/12 00:54:26;;;;;;;;;16.20;14.20;;;;;19.09;62.39;100833.94;5020214;28;45590;-49
2022/09/12 00:56:53;;;;;;;;;17.60;15.80;;;;;19.26;62.65;100867.16;5019766;28;45459;-49
2022/09/12 00:59:26;;;;;;;;;18.00;14.40;;;;;19.25;62.68;100861.88;5037624;28;45374;-51
2022/09/12 01:01:51;;;;;;;;;19.60;15.60;;;;;19.23;62.70;100868.53;5000479;28;45343;-53
2022/09/12 01:04:18;;;;;;;;;18.50;16.25;;;;;19.22;62.89;100869.63;4999720;28;45387;-54
2022/09/12 01:06:43;;;;;;;;;15.20;12.60;;;;;19.18;62.81;100864.88;5017382;28;46739;-53
2022/09/12 01:09:14;;;;;;;;;16.50;13.00;;;;;19.18;62.69;100864.88;5016935;28;45451;-53
2022/09/12 01:11:40;;;;;;;;;13.40;13.40;;;;;19.16;62.57;100870.69;5000216;28;45502;-54
2022/09/12 01:14:06;;;;;;;;;12.25;12.25;;;;;19.15;62.82;100865.44;4982970;28;45352;-49
2022/09/12 01:16:34;;;;;;;;;14.20;14.20;;;;;18.91;62.94;100830.47;4982964;28;45496;-50
2022/09/12 01:19:51;;;;;;;;;13.00;12.00;;;;;19.15;63.21;100863.47;4982681;28;45437;-52
2022/09/12 01:22:41;;;;;;;;;15.20;13.20;;;;;19.15;63.04;100857.09;5007462;28;45491;-50
2022/09/12 01:25:25;;;;;;;;;13.40;13.40;;;;;19.02;63.03;100836.97;5015523;28;45459;-51
2022/09/12 01:28:18;;;;;;;;;13.60;12.00;;;;;19.11;63.18;100848.44;4998958;28;46606;-49
2022/09/12 01:31:05;;;;;;;;;8.60;8.60;;;;;19.12;63.05;100846.47;5017025;28;45340;-51
2022/09/12 01:33:49;;;;;;;;;11.60;11.00;;;;;19.10;63.22;100847.59;4999107;28;45269;-51
2022/09/12 01:36:23;;;;;;;;;11.00;10.00;;;;;19.08;63.37;100837.81;4999394;28;45264;-53
2022/09/12 01:38:58;;;;;;;;;12.00;11.00;;;;;19.04;63.09;100831.09;5016296;28;45638;-52
2022/09/12 01:41:25;;;;;;;;;13.80;12.00;;;;;19.08;63.43;100835.91;4983383;28;45400;-49
2022/09/12 01:44:35;;;;;;;;;14.00;14.00;;;;;19.05;63.39;100835.59;5016645;28;45196;-51
2022/09/12 01:47:00;;;;;;;;;12.00;11.60;;;;;19.06;63.47;100838.09;4986178;28;45463;-53
2022/09/12 01:49:31;;;;;;;;;10.75;10.75;;;;;19.06;63.32;100829.75;5016014;28;45943;-52
2022/09/12 01:52:22;;;;;;;;;12.60;11.60;;;;;18.84;63.24;100796.47;5016669;28;45497;-53
2022/09/12 01:54:58;;;;;;;;;13.00;11.00;;;;;19.04;63.35;100829.19;5000865;28;45662;-51
2022/09/12 01:57:53;;;;;;;;;13.00;11.80;;;;;19.01;63.43;100831.63;4999892;28;45363;-54
2022/09/12 02:00:18;;;;;;;;;14.00;12.60;;;;;19.04;62.91;100831.97;5013891;28;46792;-54
2022/09/12 02:03:09;;;;;;;;;13.00;11.75;;;;;19.04;63.16;100833.88;5016130;28;45344;-51
2022/09/12 02:05:36;;;;;;;;;11.20;11.20;;;;;19.01;63.27;100823.28;4998648;28;45398;-49
2022/09/12 02:08:14;;;;;;;;;13.00;13.00;;;;;18.90;63.30;100820.41;4998567;28;45398;-50
2022/09/12 02:10:52;;;;;;;;;11.60;11.60;;;;;18.92;63.65;100828.50;5016355;28;45284;-53
2022/09/12 02:13:23;;;;;;;;;11.40;11.40;;;;;18.81;63.24;100805.34;4998789;28;45486;-51
2022/09/12 02:15:54;;;;;;;;;10.20;10.20;;;;;18.95;63.64;100825.19;4982547;28;45255;-49
2022/09/12 02:18:20;;;;;;;;;14.80;13.00;;;;;18.77;63.40;100795.84;4999252;28;45455;-51
2022/09/12 02:20:46;;;;;;;;;12.00;12.00;;;;;18.87;63.65;100815.41;4997940;28;46477;-51
2022/09/12 02:23:15;;;;;;;;;13.20;11.80;;;;;18.90;63.69;100820.41;5016131;28;45519;-54
2022/09/12 02:25:42;;;;;;;;;11.60;11.60;;;;;18.90;63.63;100817.63;4998680;28;45455;-52
2022/09/12 02:28:11;;;;;;;;;14.20;13.00;;;;;18.92;63.83;100817.38;5016099;28;45379;-52
2022/09/12 02:30:57;;;;;;;;;11.40;11.00;;;;;18.87;63.66;100800.66;4998218;28;46111;-51
2022/09/12 02:33:48;;;;;;;;;12.80;11.20;;;;;18.87;63.76;100804.28;5011515;28;45473;-53
2022/09/12 02:36:38;;;;;;;;;12.00;11.00;;;;;18.84;63.34;100799.25;4997336;28;45360;-51
2022/09/12 02:39:04;;;;;;;;;11.80;11.20;;;;;18.89;63.53;100804.84;5000338;28;45374;-52
2022/09/12 02:41:29;;;;;;;;;10.75;10.75;;;;;18.88;63.59;100807.91;5014376;28;48505;-51
2022/09/12 02:43:55;;;;;;;;;12.25;10.00;;;;;18.66;63.75;100776.31;4997709;28;45391;-49
2022/09/12 02:46:23;;;;;;;;;11.75;11.75;;;;;18.67;63.66;100772.44;4998247;28;45398;-51
2022/09/12 02:48:48;;;;;;;;;12.40;12.00;;;;;18.66;64.00;100767.13;4998179;28;45635;-51
2022/09/12 02:51:14;;;;;;;;;10.75;9.00;;;;;18.73;63.57;100776.06;5015314;28;45516;-50
2022/09/12 02:53:39;;;;;;;;;11.50;9.50;;;;;18.79;63.75;100786.13;4998039;28;45423;-52
2022/09/12 02:56:07;;;;;;;;;12.50;10.50;;;;;18.61;64.00;100756.81;4997762;28;45481;-51
2022/09/12 02:58:32;;;;;;;;;12.40;11.20;;;;;18.73;63.94;100778.84;4998164;28;45298;-52
2022/09/12 03:01:00;;;;;;;;;14.75;14.75;;;;;18.70;63.82;100771.88;5024707;28;45555;-53
2022/09/12 03:03:32;;;;;;;;;13.00;13.00;;;;;18.75;64.46;100773.88;5034891;28;45186;-51
2022/09/12 03:06:02;;;;;;;;;10.00;7.60;;;;;18.75;63.91;100785.00;5017337;28;45393;-52
2022/09/12 03:08:49;;;;;;;;;13.40;11.80;;;;;18.59;63.98;100758.19;5035543;28;45395;-50
2022/09/12 03:11:21;;;;;;;;;11.20;10.40;;;;;18.71;64.12;100772.75;5035268;28;45452;-54
2022/09/12 03:14:10;;;;;;;;;12.00;12.00;;;;;18.69;64.13;100774.94;5016922;28;45646;-52
2022/09/12 03:17:07;;;;;;;;;12.80;12.40;;;;;18.66;63.77;100767.97;5017589;28;45293;-50
2022/09/12 03:19:47;;;;;;;;;12.00;12.00;;;;;18.63;64.04;100767.69;5035414;28;45173;-51
2022/09/12 03:22:21;;;;;;;;;13.80;11.40;;;;;18.62;64.23;100774.34;5002314;28;48507;-50
2022/09/12 03:25:01;;;;;;;;;13.00;13.00;;;;;18.51;64.24;100756.75;5017227;28;45330;-50
2022/09/12 03:27:32;;;;;;;;;10.40;10.20;;;;;18.58;64.47;100756.50;5001575;28;45331;-52
2022/09/12 03:29:57;;;;;;;;;13.80;13.00;;;;;18.59;64.34;100758.19;4984670;28;45617;-49
2022/09/12 03:32:42;;;;;;;;;11.50;11.50;;;;;18.56;64.30;100757.63;5034901;28;45461;-52
2022/09/12 03:35:08;;;;;;;;;11.20;11.00;;;;;18.56;64.33;100760.41;5034699;28;45339;-49
2022/09/12 03:37:34;;;;;;;;;11.80;11.80;;;;;18.53;64.40;100749.78;5017481;28;45323;-53
2022/09/12 03:39:59;;;;;;;;;10.50;10.50;;;;;18.49;64.49;100747.81;5035108;28;45320;-50
2022/09/12 03:42:25;;;;;;;;;12.00;11.00;;;;;18.52;64.74;100756.47;5034709;28;45611;-51
2022/09/12 03:44:50;;;;;;;;;9.50;9.50;;;;;18.51;64.76;100753.97;5035116;28;45866;-50
2022/09/12 03:47:16;;;;;;;;;11.50;11.50;;;;;18.50;64.77;100744.78;5033793;28;45430;-52
2022/09/12 03:49:41;;;;;;;;;12.50;12.00;;;;;18.50;64.56;100744.78;5034999;28;45319;-52
2022/09/12 03:52:07;;;;;;;;;10.75;9.50;;;;;18.50;64.68;100743.94;5016509;28;48464;-51
2022/09/12 03:54:32;;;;;;;;;15.50;14.00;;;;;18.47;64.61;100748.06;5034698;28;45248;-51
2022/09/12 03:56:58;;;;;;;;;10.75;10.00;;;;;18.38;64.70;100733.84;5035223;28;45261;-52
2022/09/12 03:59:23;;;;;;;;;12.75;11.00;;;;;18.38;64.92;100747.75;5034586;28;45395;-50
2022/09/12 04:01:49;;;;;;;;;14.00;13.00;;;;;18.41;65.04;100749.16;5018458;28;45276;-53
2022/09/12 04:04:14;;;;;;;;;12.00;11.00;;;;;18.39;64.81;100752.19;5014684;28;45304;-51
2022/09/12 04:06:41;;;;;;;;;14.25;14.00;;;;;18.20;64.73;100726.72;5014522;28;45292;-53
2022/09/12 04:09:07;;;;;;;;;14.60;13.80;;;;;18.37;64.56;100761.91;5013369;28;45449;-48
2022/09/12 04:11:34;;;;;;;;;12.25;11.50;;;;;18.29;64.92;100747.38;5014761;28;45663;-51
2022/09/12 04:14:00;;;;;;;;;14.80;14.00;;;;;17.97;64.83;100687.06;5014598;28;45383;-50
2022/09/12 04:16:25;;;;;;;;;11.50;11.25;;;;;18.36;64.98;100760.22;5014625;28;45448;-50
2022/09/12 04:18:51;;;;;;;;;11.00;10.00;;;;;18.34;65.05;100766.03;4995716;28;45582;-49
2022/09/12 04:21:18;;;;;;;;;15.25;13.75;;;;;18.36;65.21;100766.59;4985961;28;47704;-49
2022/09/12 04:23:43;;;;;;;;;12.40;11.80;;;;;18.26;64.82;100749.88;4994583;28;45314;-53
2022/09/12 04:26:09;;;;;;;;;12.00;12.00;;;;;18.19;65.15;100757.56;5006877;28;45371;-53
2022/09/12 04:28:35;;;;;;;;;11.50;10.50;;;;;18.18;65.46;100762.28;5014700;28;45384;-49
2022/09/12 04:31:02;;;;;;;;;10.00;10.00;;;;;18.25;65.28;100765.69;5014186;28;45725;-50
2022/09/12 04:33:28;;;;;;;;;15.80;12.60;;;;;18.21;65.39;100759.00;5014345;28;45987;-50
2022/09/12 04:35:54;;;;;;;;;11.25;11.25;;;;;18.15;64.93;100751.72;5014499;28;45399;-53
2022/09/12 04:38:19;;;;;;;;;13.75;12.50;;;;;18.24;65.39;100761.22;5014696;28;45462;-48
2022/09/12 04:40:44;;;;;;;;;14.00;14.00;;;;;18.12;65.14;100741.09;5013647;28;46462;-50
2022/09/12 04:43:10;;;;;;;;;12.00;11.75;;;;;17.95;65.32;100717.06;5014806;28;45984;-49
2022/09/12 04:45:35;;;;;;;;;12.00;12.00;;;;;18.24;65.57;100765.94;5014235;28;45457;-52
2022/09/12 04:48:01;;;;;;;;;13.50;12.25;;;;;18.24;65.51;100752.91;5014823;28;45873;-51
2022/09/12 04:50:26;;;;;;;;;11.00;10.50;;;;;18.21;65.26;100747.88;5013915;28;46073;-49
2022/09/12 04:52:52;;;;;;;;;14.50;13.00;;;;;18.06;65.48;100718.00;5014199;28;45718;-51
2022/09/12 04:55:18;;;;;;;;;15.75;14.75;;;;;18.19;65.35;100741.72;5013263;28;45387;-51
2022/09/12 04:57:44;;;;;;;;;13.00;12.00;;;;;18.20;65.03;100742.59;4996352;28;45794;-50
2022/09/12 05:00:13;;;;;;;;;16.00;14.50;;;;;18.21;65.26;100742.31;5017452;28;45401;-51
2022/09/12 05:02:40;;;;;;;;;11.20;11.20;;;;;18.20;65.26;100742.59;5017670;28;45425;-53
2022/09/12 05:05:06;;;;;;;;;13.80;12.60;;;;;18.15;65.34;100737.81;5017566;28;45435;-52
2022/09/12 05:07:31;;;;;;;;;11.75;11.50;;;;;18.10;65.65;100730.25;5017632;28;45334;-52
2022/09/12 05:09:57;;;;;;;;;15.75;13.50;;;;;18.11;65.59;100733.88;5017639;28;45865;-52
2022/09/12 05:12:22;;;;;;;;;10.75;10.25;;;;;18.14;65.62;100738.91;4999711;28;45391;-51
2022/09/12 05:14:48;;;;;;;;;13.25;13.25;;;;;18.13;65.68;100740.84;5017799;28;45276;-52
2022/09/12 05:17:14;;;;;;;;;11.00;11.00;;;;;18.14;66.00;100741.69;5017504;28;45370;-49
2022/09/12 05:19:39;;;;;;;;;12.50;12.25;;;;;18.15;65.02;100735.03;4984357;28;46296;-50
2022/09/12 05:22:05;;;;;;;;;14.50;14.50;;;;;18.09;65.65;100725.81;5012856;28;45354;-53
2022/09/12 05:24:31;;;;;;;;;14.60;14.40;;;;;18.11;65.83;100734.72;4999931;28;45285;-53
2022/09/12 05:26:57;;;;;;;;;15.00;13.50;;;;;18.12;65.39;100732.78;5017127;28;45403;-54
2022/09/12 05:29:24;;;;;;;;;10.00;10.00;;;;;18.13;65.38;100734.44;4982858;28;45555;-48
2022/09/12 05:31:51;;;;;;;;;13.60;12.00;;;;;17.97;66.02;100719.53;5017356;28;45418;-50
2022/09/12 05:34:17;;;;;;;;;12.00;12.00;;;;;18.10;65.73;100735.00;5017369;28;45437;-50
2022/09/12 05:36:42;;;;;;;;;13.80;12.00;;;;;18.10;65.78;100738.59;5017150;28;45330;-52
2022/09/12 05:39:08;;;;;;;;;12.00;12.00;;;;;18.07;65.56;100735.50;5017078;28;46238;-50
2022/09/12 05:41:33;;;;;;;;;19.50;14.00;;;;;18.07;65.82;100736.34;5017010;28;45374;-51
2022/09/12 05:44:00;;;;;;;;;10.75;10.75;;;;;18.00;65.90;100716.25;5017443;28;45324;-51
2022/09/12 05:46:27;;;;;;;;;14.00;13.00;;;;;17.46;66.19;100643.00;4998930;28;45399;-53
2022/09/12 05:48:56;;;;;;;;;13.60;12.40;;;;;17.86;65.70;100697.25;5017157;28;46260;-52
2022/09/12 05:51:26;;;;;;;;;12.40;12.00;;;;;18.06;65.52;100734.69;4999318;28;45483;-53
2022/09/12 05:53:54;;;;;;;;;11.60;10.40;;;;;18.12;65.85;100743.88;5016935;28;45158;-50
2022/09/12 05:56:24;;;;;;;;;15.00;14.20;;;;;18.10;65.66;100743.31;5016939;28;45620;-55
2022/09/12 05:59:16;;;;;;;;;13.60;12.00;;;;;18.13;65.59;100740.84;5016936;28;46635;-50
2022/09/12 06:01:42;;;;;;;;;16.40;14.40;;;;;18.14;65.50;100742.53;5014665;28;45355;-52
2022/09/12 06:04:08;;;;;;;;;15.00;13.25;;;;;18.17;65.43;100730.06;5016919;28;45312;-53
2022/09/12 06:06:42;;;;;;;;;13.25;10.75;;;;;18.17;65.71;100734.75;5016708;28;45272;-49
2022/09/12 06:09:07;;;;;;;;;13.20;13.00;;;;;18.01;65.59;100698.50;5016536;28;45877;-49
2022/09/12 06:11:34;;;;;;;;;12.75;11.00;;;;;18.20;65.59;100742.59;4980995;28;45575;-50
2022/09/12 06:13:59;;;;;;;;;13.00;12.60;;;;;18.16;65.23;100733.94;4998556;28;45401;-50
2022/09/12 06:16:27;;;;;;;;;19.00;18.50;;;;;18.22;65.59;100737.59;5016258;28;45260;-51
2022/09/12 06:18:54;;;;;;;;;14.00;13.00;;;;;18.23;65.75;100740.13;5016231;28;45731;-49
2022/09/12 06:21:20;;;;;;;;;17.00;14.40;;;;;17.97;65.27;100689.84;5015709;28;45573;-50
2022/09/12 06:23:46;;;;;;;;;13.75;13.75;;;;;18.28;65.57;100747.66;4974731;28;47239;-49
2022/09/12 06:26:12;;;;;;;;;15.80;14.60;;;;;18.27;64.88;100746.81;5014041;28;45496;-48
2022/09/12 06:28:39;;;;;;;;;17.50;16.00;;;;;18.02;65.38;100702.94;4997874;28;45588;-51
2022/09/12 06:31:06;;;;;;;;;15.00;15.00;;;;;18.30;65.20;100751.00;5015852;28;45330;-52
2022/09/12 06:33:35;;;;;;;;;12.40;12.40;;;;;18.33;64.59;100753.25;4998230;28;45599;-53
2022/09/12 06:36:08;;;;;;;;;12.60;11.40;;;;;18.32;65.33;100748.81;5016095;28;45613;-52
2022/09/12 06:38:34;;;;;;;;;12.60;12.20;;;;;18.13;65.31;100721.41;5015608;28;45503;-53
2022/09/12 06:41:00;;;;;;;;;13.00;11.75;;;;;18.35;64.78;100753.00;5015640;28;45805;-51
2022/09/12 06:43:27;;;;;;;;;10.00;9.60;;;;;18.27;64.52;100734.88;5015787;28;45446;-51
2022/09/12 06:45:52;;;;;;;;;11.40;11.40;;;;;18.34;65.07;100751.28;5014756;28;45378;-49
2022/09/12 06:48:18;;;;;;;;;12.25;10.50;;;;;18.31;64.64;100751.84;5015837;28;45861;-52
2022/09/12 06:50:57;;;;;;;;;12.80;11.40;;;;;18.25;64.74;100742.63;5015174;28;45219;-54
2022/09/12 06:53:23;;;;;;;;;13.80;13.00;;;;;18.33;64.84;100749.63;4998374;28;45460;-52
2022/09/12 06:55:57;;;;;;;;;14.00;12.50;;;;;18.11;64.84;100720.84;5015938;28;45360;-54
2022/09/12 06:58:23;;;;;;;;;16.20;13.00;;;;;18.35;64.68;100742.72;5015091;28;46534;-53
2022/09/12 07:00:49;;;;;;;;;11.80;11.80;;;;;18.39;64.54;100746.66;5015486;28;45818;-49
2022/09/12 07:03:14;;;;;;;;;12.50;12.50;;;;;18.39;64.33;100743.88;5015715;28;45382;-51
2022/09/12 07:05:40;;;;;;;;;13.00;12.25;;;;;17.64;64.31;100619.59;5015462;28;45390;-51
2022/09/12 07:08:05;;;;;;;;;12.25;11.75;;;;;18.41;64.53;100743.59;4997587;28;47793;-53
2022/09/12 07:10:30;;;;;;;;;13.25;10.50;;;;;18.35;64.39;100733.56;5014994;28;45405;-51
2022/09/12 07:12:57;;;;;;;;;13.50;11.25;;;;;18.42;64.50;100743.31;5013845;28;45382;-53
2022/09/12 07:15:23;;;;;;;;;11.20;11.20;;;;;18.45;64.55;100753.06;5014845;28;45362;-54
2022/09/12 07:17:49;;;;;;;;;15.00;13.50;;;;;18.31;64.03;100724.06;5002969;28;45576;-53
2022/09/12 07:20:15;;;;;;;;;11.50;10.00;;;;;18.44;64.31;100751.41;5014062;28;45405;-51
2022/09/12 07:22:40;;;;;;;;;10.80;10.80;;;;;18.48;64.34;100758.13;5010496;28;45261;-55
2022/09/12 07:25:06;;;;;;;;;13.50;13.50;;;;;18.48;64.48;100748.94;4960224;28;45407;-52
2022/09/12 07:27:32;;;;;;;;;11.00;9.75;;;;;18.50;63.92;100741.16;4994580;28;46142;-52
2022/09/12 07:29:57;;;;;;;;;13.75;11.25;;;;;18.33;64.17;100705.19;5006384;28;45772;-51
2022/09/12 07:32:23;;;;;;;;;10.50;10.00;;;;;17.95;64.26;100650.41;5010596;28;45426;-51
2022/09/12 07:34:49;;;;;;;;;11.50;10.25;;;;;18.54;64.08;100740.38;4987629;28;45627;-54
2022/09/12 07:37:14;;;;;;;;;13.00;13.00;;;;;18.59;63.91;100738.72;4975398;28;45464;-54
2022/09/12 07:39:40;;;;;;;;;11.00;11.00;;;;;18.39;64.30;100706.91;4975650;28;45356;-54
2022/09/12 07:42:05;;;;;;;;;10.25;9.50;;;;;18.62;63.88;100741.81;4990614;28;45379;-51
2022/09/12 07:44:31;;;;;;;;;12.50;11.50;;;;;18.59;63.78;100730.38;4977465;28;45506;-53
2022/09/12 07:46:57;;;;;;;;;11.50;11.00;;;;;18.45;63.71;100702.25;4961966;28;45361;-51
2022/09/12 07:49:23;;;;;;;;;15.00;13.75;;;;;18.70;63.71;100740.50;4976849;28;45467;-53
2022/09/12 07:51:48;;;;;;;;;14.00;13.75;;;;;18.75;63.89;100742.47;4975701;28;45413;-53
2022/09/12 07:54:14;;;;;;;;;12.00;12.00;;;;;18.76;63.79;100744.13;4974229;28;45395;-48
2022/09/12 07:56:40;;;;;;;;;12.60;12.60;;;;;18.80;63.94;100748.06;4989719;28;46513;-50
2022/09/12 07:59:06;;;;;;;;;14.75;13.25;;;;;18.83;63.18;100741.94;4989990;28;45744;-52
2022/09/12 08:01:32;;;;;;;;;12.60;11.40;;;;;18.85;63.56;100744.47;4985538;28;45670;-51
2022/09/12 08:03:58;;;;;;;;;12.75;12.75;;;;;18.90;63.43;100747.28;5013198;28;45587;-54
2022/09/12 08:06:25;;;;;;;;;14.20;12.80;;;;;18.92;62.87;100745.06;4977251;28;46571;-52
2022/09/12 08:08:51;;;;;;;;;9.60;9.40;;;;;18.96;62.86;100744.25;4974070;28;45368;-49
2022/09/12 08:11:18;;;;;;;;;13.00;10.20;;;;;18.84;62.80;100713.06;4990588;28;45488;-51
2022/09/12 08:13:43;;;;;;;;;11.00;10.40;;;;;19.06;62.69;100742.69;4975344;28;45338;-48
2022/09/12 08:16:17;;;;;;;;;12.25;11.25;;;;;19.07;62.78;100742.44;4975141;28;45541;-49
2022/09/12 08:18:43;;;;;;;;;9.60;9.20;;;;;19.14;62.63;100738.53;4974834;28;45346;-50
2022/09/12 08:21:22;;;;;;;;;11.75;9.00;;;;;19.19;62.50;100735.81;4975385;28;45317;-50
2022/09/12 08:23:53;;;;;;;;;7.40;7.40;;;;;19.23;61.64;100737.75;4975513;28;45482;-54
2022/09/12 08:26:19;;;;;;;;;10.40;10.40;;;;;19.23;62.02;100743.31;4956977;28;47224;-49
2022/09/12 08:28:45;;;;;;;;;10.75;10.75;;;;;19.28;62.12;100736.13;4983224;28;45420;-50
2022/09/12 08:31:11;;;;;;;;;8.25;8.25;;;;;19.14;62.81;100707.94;5014338;28;45218;-50
2022/09/12 08:33:38;;;;;;;;;12.80;11.00;;;;;19.42;61.84;100731.72;4997841;28;45432;-48
2022/09/12 08:36:08;;;;;;;;;11.00;11.00;;;;;19.50;61.79;100735.94;5005394;28;45500;-52
2022/09/12 08:38:34;;;;;;;;;9.60;8.20;;;;;19.55;61.49;100732.34;4978223;28;45494;-52
2022/09/12 08:41:20;;;;;;;;;10.25;10.25;;;;;19.63;61.19;100735.44;4978097;28;45328;-51
2022/09/12 08:43:55;;;;;;;;;10.60;10.20;;;;;19.69;60.54;100741.03;4978645;28;45356;-51
2022/09/12 08:46:45;;;;;;;;;5.60;5.60;;;;;19.52;60.81;100703.09;4977931;28;46485;-50
2022/09/12 08:49:26;;;;;;;;;9.20;8.00;;;;;19.79;60.60;100741.03;4977246;28;46006;-49
2022/09/12 08:51:51;;;;;;;;;6.60;6.60;;;;;19.51;60.68;100676.38;4993550;28;45347;-51
2022/09/12 08:54:25;;;;;;;;;6.25;5.75;;;;;19.74;60.18;100708.44;4975641;28;45685;-51
2022/09/12 08:56:52;;;;;;;;;10.40;8.60;;;;;20.00;59.64;100735.53;4993131;28;48294;-48
2022/09/12 08:59:17;;;;;;;;;9.60;9.00;;;;;20.07;59.19;100733.34;4993200;28;45411;-53
2022/09/12 09:01:44;;;;;;;;;9.00;7.50;;;;;20.01;59.36;100707.41;4982830;28;45461;-52
2022/09/12 09:04:27;;;;;;;;;7.80;7.00;;;;;20.26;59.14;100730.00;5032474;28;45601;-47
2022/09/12 09:07:15;;;;;;;;;6.80;6.80;;;;;20.39;59.05;100728.63;5017126;28;45307;-48
2022/09/12 09:10:07;;;;;;;;;7.20;6.00;;;;;20.52;58.48;100727.22;5031371;28;45449;-47
2022/09/12 09:13:09;;;;;;;;;10.80;7.20;;;;;20.66;58.31;100722.72;5016065;28;45486;-50
2022/09/12 09:15:57;;;;;;;;;9.00;7.80;;;;;20.77;57.87;100722.72;5017525;28;45224;-51
2022/09/12 09:18:27;;;;;;;;;10.00;10.00;;;;;20.91;57.57;100721.06;4999979;28;45651;-49
2022/09/12 09:20:59;;;;;;;;;8.60;7.40;;;;;21.00;57.61;100718.53;5017399;28;45260;-51
2022/09/12 09:23:29;;;;;;;;;7.40;7.40;;;;;21.02;57.70;100704.31;4999174;28;45412;-49
2022/09/12 09:26:14;;;;;;;;;6.60;5.40;;;;;21.11;57.18;100699.78;5017473;28;45593;-48
2022/09/12 09:28:44;;;;;;;;;9.20;7.20;;;;;21.19;56.87;100699.19;4957443;28;48671;-47
2022/09/12 09:31:17;;;;;;;;;10.80;10.80;;;;;21.29;56.38;100701.13;5003317;28;45617;-49
2022/09/12 09:33:43;;;;;;;;;7.20;7.20;;;;;21.38;56.24;100705.00;4991886;28;45484;-53
2022/09/12 09:36:18;;;;;;;;;5.25;5.25;;;;;21.46;55.71;100703.53;4983957;28;45798;-49
2022/09/12 09:38:46;;;;;;;;;7.80;6.00;;;;;21.24;56.11;100650.94;4995676;28;46954;-54
2022/09/12 09:41:24;;;;;;;;;5.40;2.40;;;;;21.66;56.17;100698.97;4996341;28;45470;-50
2022/09/12 09:43:50;;;;;;;;;11.60;8.00;;;;;21.73;54.76;100688.38;4996373;28;45739;-46
2022/09/12 09:46:15;;;;;;;;;6.25;5.00;;;;;21.80;55.12;100691.69;4995593;28;45210;-52
2022/09/12 09:48:43;;;;;;;;;11.00;7.50;;;;;21.77;53.73;100686.66;4995473;28;45639;-54
2022/09/12 09:51:08;;;;;;;;;7.80;6.80;;;;;21.85;53.91;100690.81;4978988;28;45475;-51
2022/09/12 09:53:39;;;;;;;;;8.00;6.00;;;;;21.79;53.20;100678.81;4977783;28;45357;-52
2022/09/12 09:56:17;;;;;;;;;5.20;5.20;;;;;21.92;53.31;100696.06;4978715;28;45337;-51
2022/09/12 09:58:43;;;;;;;;;7.40;6.20;;;;;21.72;53.38;100641.19;4977356;28;45898;-54
2022/09/12 10:01:14;;;;;;;;;7.00;7.00;;;;;22.00;53.77;100677.84;4996117;28;45452;-53
2022/09/12 10:03:41;;;;;;;;;3.00;3.00;;;;;22.10;53.37;100685.31;4977867;28;45431;-52
2022/09/12 10:06:31;;;;;;;;;6.60;6.60;;;;;22.18;53.25;100684.69;4961530;28;45576;-53
2022/09/12 10:09:16;;;;;;;;;4.40;4.40;;;;;22.26;53.19;100672.06;4979365;28;46984;-56
2022/09/12 10:11:42;;;;;;;;;4.40;4.40;;;;;22.34;52.17;100661.06;4995315;28;45421;-50
2022/09/12 10:14:28;;;;;;;;;6.75;5.75;;;;;22.45;52.71;100661.81;4951279;28;45445;-49
2022/09/12 10:16:53;;;;;;;;;5.40;4.60;;;;;22.50;52.54;100665.69;4962428;28;45484;-53
2022/09/12 10:19:31;;;;;;;;;7.00;5.75;;;;;22.07;52.03;100584.19;4995058;28;45498;-52
2022/09/12 10:21:57;;;;;;;;;4.40;3.40;;;;;22.65;51.87;100659.13;4995624;28;45332;-56
2022/09/12 10:24:25;;;;;;;;;5.00;4.25;;;;;22.75;51.99;100664.63;4982867;28;45274;-49
2022/09/12 10:27:12;;;;;;;;;5.20;4.80;;;;;22.86;51.34;100654.97;4984895;28;45367;-52
2022/09/12 10:29:48;;;;;;;;;4.00;2.40;;;;;22.90;50.86;100659.97;4970092;28;45817;-54
2022/09/12 10:32:24;;;;;;;;;4.60;3.60;;;;;22.74;51.26;100619.00;4947948;28;47832;-54
2022/09/12 10:34:52;;;;;;;;;2.80;2.80;;;;;22.63;51.06;100583.91;4979053;28;45816;-52
2022/09/12 10:37:24;;;;;;;;;6.00;5.00;;;;;23.19;51.68;100661.84;4973840;28;45928;-53
2022/09/12 10:39:55;;;;;;;;;3.80;3.80;;;;;23.28;51.10;100651.66;5018424;28;46123;-54
2022/09/12 10:42:43;;;;;;;;;5.20;5.20;;;;;23.33;50.01;100651.63;4997871;28;45504;-53
2022/09/12 10:45:24;;;;;;;;;10.60;9.20;;;;;23.20;49.67;100625.16;4985731;28;45599;-56
2022/09/12 10:47:50;;;;;;;;;2.60;2.60;;;;;23.49;48.62;100654.22;5010163;28;45545;-54
2022/09/12 10:50:46;;;;;;;;;3.60;2.20;;;;;23.52;48.89;100643.22;5009298;28;45823;-52
2022/09/12 10:53:18;;;;;;;;;2.60;2.60;;;;;23.61;48.92;100648.16;5007902;28;45775;-55
2022/09/12 10:56:12;;;;;;;;;4.00;4.00;;;;;23.72;48.93;100641.25;5009833;28;45813;-53
2022/09/12 10:59:15;;;;;;;;;2.00;2.00;;;;;23.86;47.45;100641.34;5011933;28;45399;-57
2022/09/12 11:02:03;;;;;;;;;3.40;2.40;;;;;23.98;48.51;100642.81;5015229;28;46418;-54
2022/09/12 11:04:31;;;;;;;;;4.40;4.00;;;;;24.06;47.93;100636.53;4997483;28;45518;-52
2022/09/12 11:07:34;;;;;;;;;2.60;2.60;;;;;24.19;48.39;100640.53;5010636;28;45767;-51
2022/09/12 11:10:21;;;;;;;;;4.00;2.80;;;;;24.26;47.97;100624.16;5014855;28;45422;-55
2022/09/12 11:13:15;;;;;;;;;5.00;4.40;;;;;24.47;47.40;100638.63;5014845;28;45406;-54
2022/09/12 11:15:59;;;;;;;;;4.80;3.80;;;;;24.47;46.96;100624.59;4996813;28;45661;-53
2022/09/12 11:18:44;;;;;;;;;3.00;3.00;;;;;24.65;47.45;100647.25;5006953;28;45393;-54
2022/09/12 11:21:36;;;;;;;;;4.00;4.00;;;;;24.76;46.51;100645.91;4994598;28;45408;-54
2022/09/12 11:24:16;;;;;;;;;4.80;4.00;;;;;24.86;46.28;100638.50;4966644;28;46128;-53
2022/09/12 11:27:16;;;;;;;;;4.20;4.00;;;;;24.87;46.32;100635.34;4976480;28;45492;-56
2022/09/12 11:29:50;;;;;;;;;1.40;1.40;;;;;24.88;46.31;100630.59;4983766;28;45672;-59
2022/09/12 11:32:41;;;;;;;;;4.00;4.00;;;;;24.97;47.22;100625.06;4945473;28;45418;-57